sensor_id;sensor_type;location;lat;lon;timestamp;P1;durP1;ratioP1;P2;durP2;ratioP2
69008;SDS011;56065;52.472;13.380;2023-05-19T00:00:51;7.30;;;1.30;;
69008;SDS011;56065;52.472;13.380;2023-05-19T00:03:17;7.32;;;1.45;;
69008;SDS011;56065;52.472;13.380;2023-05-19T00:05:45;7.78;;;1.15;;
69008;SDS011;56065;52.472;13.380;2023-05-19T00:08:12;6.13;;;1.37;;
69008;SDS011;56065;52.472;13.380;2023-05-19T00:10:41;7.68;;;1.15;;
69008;SDS011;56065;52.472;13.380;2023-05-19T00:13:06;8.15;;;1.63;;
69008;SDS011;56065;52.472;13.380;2023-05-19T00:15:32;7.33;;;1.20;;
69008;SDS011;56065;52.472;13.380;2023-05-19T00:17:57;7.03;;;1.40;;
69008;SDS011;56065;52.472;13.380;2023-05-19T00:20:23;8.45;;;1.40;;
69008;SDS011;56065;52.472;13.380;2023-05-19T00:22:48;7.00;;;1.20;;
69008;SDS011;56065;52.472;13.380;2023-05-19T00:25:15;8.45;;;1.30;;
69008;SDS011;56065;52.472;13.380;2023-05-19T00:27:40;7.30;;;1.17;;
69008;SDS011;56065;52.472;13.380;2023-05-19T00:30:06;7.33;;;1.50;;
69008;SDS011;56065;52.472;13.380;2023-05-19T00:32:31;7.28;;;1.35;;
69008;SDS011;56065;52.472;13.380;2023-05-19T00:34:57;6.00;;;1.07;;
69008;SDS011;56065;52.472;13.380;2023-05-19T00:37:23;7.20;;;1.30;;
69008;SDS011;56065;52.472;13.380;2023-05-19T00:39:48;5.93;;;1.33;;
69008;SDS011;56065;52.472;13.380;2023-05-19T00:42:13;8.83;;;1.50;;
69008;SDS011;56065;52.472;13.380;2023-05-19T00:44:39;9.37;;;1.47;;
69008;SDS011;56065;52.472;13.380;2023-05-19T00:47:06;5.75;;;1.40;;
69008;SDS011;56065;52.472;13.380;2023-05-19T00:49:31;7.53;;;0.95;;
69008;SDS011;56065;52.472;13.380;2023-05-19T00:51:57;7.03;;;1.10;;
69008;SDS011;56065;52.472;13.380;2023-05-19T00:54:25;8.50;;;1.30;;
69008;SDS011;56065;52.472;13.380;2023-05-19T00:56:50;5.23;;;1.00;;
69008;SDS011;56065;52.472;13.380;2023-05-19T00:59:18;8.07;;;1.10;;
69008;SDS011;56065;52.472;13.380;2023-05-19T01:01:43;6.53;;;1.00;;
69008;SDS011;56065;52.472;13.380;2023-05-19T01:04:12;7.00;;;1.20;;
69008;SDS011;56065;52.472;13.380;2023-05-19T01:06:40;6.78;;;1.30;;
69008;SDS011;56065;52.472;13.380;2023-05-19T01:09:06;8.75;;;1.38;;
69008;SDS011;56065;52.472;13.380;2023-05-19T01:11:33;6.80;;;1.20;;
69008;SDS011;56065;52.472;13.380;2023-05-19T01:13:58;8.30;;;1.00;;
69008;SDS011;56065;52.472;13.380;2023-05-19T01:16:25;7.43;;;1.30;;
69008;SDS011;56065;52.472;13.380;2023-05-19T01:24:33;6.68;;;1.23;;
69008;SDS011;56065;52.472;13.380;2023-05-19T01:32:33;8.10;;;1.23;;
69008;SDS011;56065;52.472;13.380;2023-05-19T01:35:00;7.30;;;1.30;;
69008;SDS011;56065;52.472;13.380;2023-05-19T01:37:28;5.82;;;0.90;;
69008;SDS011;56065;52.472;13.380;2023-05-19T01:39:53;5.65;;;1.00;;
69008;SDS011;56065;52.472;13.380;2023-05-19T01:42:20;6.00;;;0.97;;
69008;SDS011;56065;52.472;13.380;2023-05-19T01:44:46;6.05;;;0.90;;
69008;SDS011;56065;52.472;13.380;2023-05-19T01:47:12;7.15;;;0.95;;
69008;SDS011;56065;52.472;13.380;2023-05-19T01:49:38;6.60;;;1.65;;
69008;SDS011;56065;52.472;13.380;2023-05-19T01:52:03;6.70;;;1.03;;
69008;SDS011;56065;52.472;13.380;2023-05-19T01:54:29;7.90;;;1.52;;
69008;SDS011;56065;52.472;13.380;2023-05-19T02:02:22;4.10;;;1.20;;
69008;SDS011;56065;52.472;13.380;2023-05-19T02:04:59;7.40;;;1.60;;
69008;SDS011;56065;52.472;13.380;2023-05-19T02:07:40;6.43;;;1.50;;
69008;SDS011;56065;52.472;13.380;2023-05-19T02:10:18;12.38;;;1.42;;
69008;SDS011;56065;52.472;13.380;2023-05-19T02:12:47;5.93;;;1.17;;
69008;SDS011;56065;52.472;13.380;2023-05-19T02:15:20;6.20;;;1.30;;
69008;SDS011;56065;52.472;13.380;2023-05-19T02:17:50;7.70;;;1.25;;
69008;SDS011;56065;52.472;13.380;2023-05-19T02:20:18;6.43;;;1.10;;
69008;SDS011;56065;52.472;13.380;2023-05-19T02:22:46;7.95;;;1.10;;
69008;SDS011;56065;52.472;13.380;2023-05-19T02:25:12;7.40;;;1.30;;
69008;SDS011;56065;52.472;13.380;2023-05-19T02:27:38;9.23;;;1.23;;
69008;SDS011;56065;52.472;13.380;2023-05-19T02:30:04;8.63;;;1.30;;
69008;SDS011;56065;52.472;13.380;2023-05-19T02:32:30;5.55;;;1.05;;
69008;SDS011;56065;52.472;13.380;2023-05-19T02:34:56;8.27;;;1.10;;
69008;SDS011;56065;52.472;13.380;2023-05-19T02:37:21;6.03;;;0.90;;
69008;SDS011;56065;52.472;13.380;2023-05-19T02:39:52;6.60;;;1.20;;
69008;SDS011;56065;52.472;13.380;2023-05-19T02:42:18;4.53;;;1.10;;
69008;SDS011;56065;52.472;13.380;2023-05-19T02:44:43;4.57;;;0.80;;
69008;SDS011;56065;52.472;13.380;2023-05-19T02:47:09;8.30;;;1.20;;
69008;SDS011;56065;52.472;13.380;2023-05-19T02:49:34;7.33;;;1.30;;
69008;SDS011;56065;52.472;13.380;2023-05-19T02:52:00;5.67;;;1.13;;
69008;SDS011;56065;52.472;13.380;2023-05-19T02:54:27;8.00;;;1.10;;
69008;SDS011;56065;52.472;13.380;2023-05-19T02:56:55;6.70;;;1.07;;
69008;SDS011;56065;52.472;13.380;2023-05-19T02:59:21;5.47;;;0.95;;
69008;SDS011;56065;52.472;13.380;2023-05-19T03:01:47;6.47;;;1.30;;
69008;SDS011;56065;52.472;13.380;2023-05-19T03:04:12;7.35;;;1.13;;
69008;SDS011;56065;52.472;13.380;2023-05-19T03:06:38;7.73;;;1.17;;
69008;SDS011;56065;52.472;13.380;2023-05-19T03:09:03;5.87;;;1.00;;
69008;SDS011;56065;52.472;13.380;2023-05-19T03:11:29;7.60;;;1.27;;
69008;SDS011;56065;52.472;13.380;2023-05-19T03:13:55;5.15;;;1.27;;
69008;SDS011;56065;52.472;13.380;2023-05-19T03:16:20;7.27;;;1.07;;
69008;SDS011;56065;52.472;13.380;2023-05-19T03:18:46;8.90;;;1.20;;
69008;SDS011;56065;52.472;13.380;2023-05-19T03:21:11;7.07;;;1.30;;
69008;SDS011;56065;52.472;13.380;2023-05-19T03:23:37;4.70;;;1.00;;
69008;SDS011;56065;52.472;13.380;2023-05-19T03:26:02;6.30;;;1.13;;
69008;SDS011;56065;52.472;13.380;2023-05-19T03:28:28;6.67;;;1.00;;
69008;SDS011;56065;52.472;13.380;2023-05-19T03:30:53;6.68;;;1.10;;
69008;SDS011;56065;52.472;13.380;2023-05-19T03:33:18;7.47;;;1.23;;
69008;SDS011;56065;52.472;13.380;2023-05-19T03:35:44;6.07;;;1.30;;
69008;SDS011;56065;52.472;13.380;2023-05-19T03:38:09;6.00;;;1.00;;
69008;SDS011;56065;52.472;13.380;2023-05-19T03:40:35;6.43;;;1.48;;
69008;SDS011;56065;52.472;13.380;2023-05-19T03:43:00;7.00;;;1.20;;
69008;SDS011;56065;52.472;13.380;2023-05-19T03:45:26;5.40;;;1.07;;
69008;SDS011;56065;52.472;13.380;2023-05-19T03:47:52;7.55;;;1.35;;
69008;SDS011;56065;52.472;13.380;2023-05-19T03:50:17;5.30;;;1.10;;
69008;SDS011;56065;52.472;13.380;2023-05-19T03:52:42;6.47;;;1.20;;
69008;SDS011;56065;52.472;13.380;2023-05-19T03:55:12;6.00;;;1.15;;
69008;SDS011;56065;52.472;13.380;2023-05-19T03:57:38;6.78;;;1.13;;
69008;SDS011;56065;52.472;13.380;2023-05-19T04:00:10;7.23;;;1.03;;
69008;SDS011;56065;52.472;13.380;2023-05-19T04:02:36;8.07;;;1.20;;
69008;SDS011;56065;52.472;13.380;2023-05-19T04:05:01;6.00;;;1.20;;
69008;SDS011;56065;52.472;13.380;2023-05-19T04:07:29;6.07;;;1.20;;
69008;SDS011;56065;52.472;13.380;2023-05-19T04:09:55;6.47;;;1.33;;
69008;SDS011;56065;52.472;13.380;2023-05-19T04:12:20;4.90;;;1.30;;
69008;SDS011;56065;52.472;13.380;2023-05-19T04:14:46;7.53;;;1.55;;
69008;SDS011;56065;52.472;13.380;2023-05-19T04:17:11;6.60;;;1.40;;
69008;SDS011;56065;52.472;13.380;2023-05-19T04:19:36;7.73;;;1.40;;
69008;SDS011;56065;52.472;13.380;2023-05-19T04:22:02;7.20;;;1.20;;
69008;SDS011;56065;52.472;13.380;2023-05-19T04:24:27;8.90;;;1.33;;
69008;SDS011;56065;52.472;13.380;2023-05-19T04:26:52;6.77;;;1.30;;
69008;SDS011;56065;52.472;13.380;2023-05-19T04:29:18;7.25;;;1.30;;
69008;SDS011;56065;52.472;13.380;2023-05-19T04:31:43;7.30;;;1.40;;
69008;SDS011;56065;52.472;13.380;2023-05-19T04:34:09;12.33;;;1.57;;
69008;SDS011;56065;52.472;13.380;2023-05-19T04:36:35;6.57;;;1.20;;
69008;SDS011;56065;52.472;13.380;2023-05-19T04:39:00;7.53;;;1.47;;
69008;SDS011;56065;52.472;13.380;2023-05-19T04:41:27;5.75;;;1.10;;
69008;SDS011;56065;52.472;13.380;2023-05-19T04:43:53;6.20;;;1.40;;
69008;SDS011;56065;52.472;13.380;2023-05-19T04:46:21;6.80;;;1.88;;
69008;SDS011;56065;52.472;13.380;2023-05-19T04:48:48;6.75;;;1.20;;
69008;SDS011;56065;52.472;13.380;2023-05-19T04:51:14;7.40;;;1.33;;
69008;SDS011;56065;52.472;13.380;2023-05-19T04:53:40;7.37;;;1.60;;
69008;SDS011;56065;52.472;13.380;2023-05-19T04:56:06;6.97;;;1.40;;
69008;SDS011;56065;52.472;13.380;2023-05-19T04:58:31;6.45;;;1.30;;
69008;SDS011;56065;52.472;13.380;2023-05-19T05:00:57;6.40;;;1.60;;
69008;SDS011;56065;52.472;13.380;2023-05-19T05:03:23;8.67;;;1.67;;
69008;SDS011;56065;52.472;13.380;2023-05-19T05:05:48;8.80;;;1.75;;
69008;SDS011;56065;52.472;13.380;2023-05-19T05:08:14;6.07;;;1.25;;
69008;SDS011;56065;52.472;13.380;2023-05-19T05:10:45;6.27;;;1.80;;
69008;SDS011;56065;52.472;13.380;2023-05-19T05:13:11;7.57;;;1.52;;
69008;SDS011;56065;52.472;13.380;2023-05-19T05:15:37;6.63;;;1.37;;
69008;SDS011;56065;52.472;13.380;2023-05-19T05:18:02;6.70;;;1.63;;
69008;SDS011;56065;52.472;13.380;2023-05-19T05:20:29;7.88;;;1.60;;
69008;SDS011;56065;52.472;13.380;2023-05-19T05:22:55;9.45;;;1.70;;
69008;SDS011;56065;52.472;13.380;2023-05-19T05:25:21;8.43;;;1.77;;
69008;SDS011;56065;52.472;13.380;2023-05-19T05:27:47;8.00;;;1.40;;
69008;SDS011;56065;52.472;13.380;2023-05-19T05:30:12;8.00;;;1.60;;
69008;SDS011;56065;52.472;13.380;2023-05-19T05:32:38;9.07;;;1.80;;
69008;SDS011;56065;52.472;13.380;2023-05-19T05:35:04;9.77;;;1.90;;
69008;SDS011;56065;52.472;13.380;2023-05-19T05:37:29;7.17;;;1.93;;
69008;SDS011;56065;52.472;13.380;2023-05-19T05:39:55;6.30;;;1.57;;
69008;SDS011;56065;52.472;13.380;2023-05-19T05:42:20;9.00;;;1.80;;
69008;SDS011;56065;52.472;13.380;2023-05-19T05:44:45;6.47;;;1.67;;
69008;SDS011;56065;52.472;13.380;2023-05-19T05:47:11;10.13;;;1.83;;
69008;SDS011;56065;52.472;13.380;2023-05-19T05:49:37;6.72;;;1.70;;
69008;SDS011;56065;52.472;13.380;2023-05-19T05:52:04;9.07;;;2.17;;
69008;SDS011;56065;52.472;13.380;2023-05-19T05:54:31;7.95;;;1.90;;
69008;SDS011;56065;52.472;13.380;2023-05-19T05:56:57;6.13;;;1.50;;
69008;SDS011;56065;52.472;13.380;2023-05-19T05:59:23;9.27;;;2.00;;
69008;SDS011;56065;52.472;13.380;2023-05-19T06:01:48;10.30;;;2.08;;
69008;SDS011;56065;52.472;13.380;2023-05-19T06:04:14;6.03;;;1.80;;
69008;SDS011;56065;52.472;13.380;2023-05-19T06:06:39;7.50;;;1.63;;
69008;SDS011;56065;52.472;13.380;2023-05-19T06:09:05;8.70;;;1.83;;
69008;SDS011;56065;52.472;13.380;2023-05-19T06:11:31;8.33;;;1.97;;
69008;SDS011;56065;52.472;13.380;2023-05-19T06:13:56;8.47;;;1.80;;
69008;SDS011;56065;52.472;13.380;2023-05-19T06:16:22;9.82;;;2.40;;
69008;SDS011;56065;52.472;13.380;2023-05-19T06:18:47;8.37;;;1.93;;
69008;SDS011;56065;52.472;13.380;2023-05-19T06:21:12;8.27;;;2.10;;
69008;SDS011;56065;52.472;13.380;2023-05-19T06:23:39;10.07;;;2.53;;
69008;SDS011;56065;52.472;13.380;2023-05-19T06:26:05;7.63;;;1.90;;
69008;SDS011;56065;52.472;13.380;2023-05-19T06:28:31;5.63;;;1.90;;
69008;SDS011;56065;52.472;13.380;2023-05-19T06:30:57;7.40;;;1.80;;
69008;SDS011;56065;52.472;13.380;2023-05-19T06:33:22;11.80;;;2.73;;
69008;SDS011;56065;52.472;13.380;2023-05-19T06:35:48;15.07;;;3.40;;
69008;SDS011;56065;52.472;13.380;2023-05-19T06:38:13;8.77;;;2.40;;
69008;SDS011;56065;52.472;13.380;2023-05-19T06:40:39;10.20;;;2.38;;
69008;SDS011;56065;52.472;13.380;2023-05-19T06:43:04;8.30;;;2.13;;
69008;SDS011;56065;52.472;13.380;2023-05-19T06:45:30;8.05;;;2.15;;
69008;SDS011;56065;52.472;13.380;2023-05-19T06:47:55;12.30;;;2.13;;
69008;SDS011;56065;52.472;13.380;2023-05-19T06:50:22;6.45;;;2.15;;
69008;SDS011;56065;52.472;13.380;2023-05-19T06:52:47;6.63;;;2.20;;
69008;SDS011;56065;52.472;13.380;2023-05-19T06:55:13;6.47;;;2.00;;
69008;SDS011;56065;52.472;13.380;2023-05-19T06:57:38;7.80;;;2.20;;
69008;SDS011;56065;52.472;13.380;2023-05-19T07:00:04;8.23;;;2.30;;
69008;SDS011;56065;52.472;13.380;2023-05-19T07:02:32;7.97;;;1.90;;
69008;SDS011;56065;52.472;13.380;2023-05-19T07:04:58;7.05;;;2.03;;
69008;SDS011;56065;52.472;13.380;2023-05-19T07:07:23;9.23;;;2.13;;
69008;SDS011;56065;52.472;13.380;2023-05-19T07:09:48;8.27;;;2.20;;
69008;SDS011;56065;52.472;13.380;2023-05-19T07:12:14;8.37;;;2.03;;
69008;SDS011;56065;52.472;13.380;2023-05-19T07:14:39;6.67;;;1.80;;
69008;SDS011;56065;52.472;13.380;2023-05-19T07:17:05;7.10;;;2.13;;
69008;SDS011;56065;52.472;13.380;2023-05-19T07:19:30;7.90;;;2.10;;
69008;SDS011;56065;52.472;13.380;2023-05-19T07:21:55;6.40;;;2.00;;
69008;SDS011;56065;52.472;13.380;2023-05-19T07:24:21;7.00;;;1.93;;
69008;SDS011;56065;52.472;13.380;2023-05-19T07:26:47;7.13;;;2.15;;
69008;SDS011;56065;52.472;13.380;2023-05-19T07:29:12;8.10;;;2.37;;
69008;SDS011;56065;52.472;13.380;2023-05-19T07:31:37;6.77;;;1.70;;
69008;SDS011;56065;52.472;13.380;2023-05-19T07:34:03;6.72;;;2.00;;
69008;SDS011;56065;52.472;13.380;2023-05-19T07:36:28;9.13;;;2.47;;
69008;SDS011;56065;52.472;13.380;2023-05-19T07:38:53;7.70;;;2.10;;
69008;SDS011;56065;52.472;13.380;2023-05-19T07:41:19;8.70;;;2.37;;
69008;SDS011;56065;52.472;13.380;2023-05-19T07:43:45;8.70;;;2.42;;
69008;SDS011;56065;52.472;13.380;2023-05-19T07:46:11;8.80;;;2.73;;
69008;SDS011;56065;52.472;13.380;2023-05-19T07:48:36;7.13;;;2.20;;
69008;SDS011;56065;52.472;13.380;2023-05-19T07:51:01;6.17;;;2.03;;
69008;SDS011;56065;52.472;13.380;2023-05-19T07:53:27;7.60;;;2.40;;
69008;SDS011;56065;52.472;13.380;2023-05-19T07:55:52;6.73;;;2.47;;
69008;SDS011;56065;52.472;13.380;2023-05-19T07:58:18;7.07;;;2.33;;
69008;SDS011;56065;52.472;13.380;2023-05-19T08:00:44;6.63;;;2.65;;
69008;SDS011;56065;52.472;13.380;2023-05-19T08:03:10;8.53;;;2.30;;
69008;SDS011;56065;52.472;13.380;2023-05-19T08:05:35;8.25;;;2.75;;
69008;SDS011;56065;52.472;13.380;2023-05-19T08:08:01;5.90;;;2.33;;
69008;SDS011;56065;52.472;13.380;2023-05-19T08:10:27;6.23;;;2.23;;
69008;SDS011;56065;52.472;13.380;2023-05-19T08:12:52;9.13;;;2.60;;
69008;SDS011;56065;52.472;13.380;2023-05-19T08:15:18;7.33;;;2.63;;
69008;SDS011;56065;52.472;13.380;2023-05-19T08:17:43;6.20;;;2.20;;
69008;SDS011;56065;52.472;13.380;2023-05-19T08:20:09;6.43;;;2.40;;
69008;SDS011;56065;52.472;13.380;2023-05-19T08:22:36;7.63;;;2.58;;
69008;SDS011;56065;52.472;13.380;2023-05-19T08:25:02;7.03;;;2.60;;
69008;SDS011;56065;52.472;13.380;2023-05-19T08:27:28;10.53;;;2.93;;
69008;SDS011;56065;52.472;13.380;2023-05-19T08:29:54;6.35;;;2.35;;
69008;SDS011;56065;52.472;13.380;2023-05-19T08:32:19;5.80;;;2.67;;
69008;SDS011;56065;52.472;13.380;2023-05-19T08:34:45;5.90;;;2.30;;
69008;SDS011;56065;52.472;13.380;2023-05-19T08:37:10;7.10;;;2.40;;
69008;SDS011;56065;52.472;13.380;2023-05-19T08:39:36;6.17;;;2.43;;
69008;SDS011;56065;52.472;13.380;2023-05-19T08:42:01;7.13;;;1.80;;
69008;SDS011;56065;52.472;13.380;2023-05-19T08:44:26;5.27;;;1.87;;
69008;SDS011;56065;52.472;13.380;2023-05-19T08:46:53;6.25;;;2.33;;
69008;SDS011;56065;52.472;13.380;2023-05-19T08:49:25;6.40;;;2.40;;
69008;SDS011;56065;52.472;13.380;2023-05-19T08:51:57;7.90;;;2.00;;
69008;SDS011;56065;52.472;13.380;2023-05-19T08:54:32;6.38;;;2.05;;
69008;SDS011;56065;52.472;13.380;2023-05-19T08:57:24;8.38;;;2.20;;
69008;SDS011;56065;52.472;13.380;2023-05-19T08:59:51;8.35;;;1.90;;
69008;SDS011;56065;52.472;13.380;2023-05-19T09:02:18;7.77;;;1.60;;
69008;SDS011;56065;52.472;13.380;2023-05-19T09:04:44;6.63;;;2.20;;
69008;SDS011;56065;52.472;13.380;2023-05-19T09:07:12;5.80;;;1.90;;
69008;SDS011;56065;52.472;13.380;2023-05-19T09:09:38;5.35;;;1.90;;
69008;SDS011;56065;52.472;13.380;2023-05-19T09:12:07;6.55;;;1.92;;
69008;SDS011;56065;52.472;13.380;2023-05-19T09:14:33;6.13;;;1.90;;
69008;SDS011;56065;52.472;13.380;2023-05-19T09:16:58;4.50;;;1.60;;
69008;SDS011;56065;52.472;13.380;2023-05-19T09:19:27;4.87;;;1.60;;
69008;SDS011;56065;52.472;13.380;2023-05-19T09:21:59;6.82;;;1.60;;
69008;SDS011;56065;52.472;13.380;2023-05-19T09:24:27;5.47;;;2.30;;
69008;SDS011;56065;52.472;13.380;2023-05-19T09:26:56;5.55;;;2.00;;
69008;SDS011;56065;52.472;13.380;2023-05-19T09:29:22;4.50;;;1.20;;
69008;SDS011;56065;52.472;13.380;2023-05-19T09:31:51;5.55;;;2.20;;
69008;SDS011;56065;52.472;13.380;2023-05-19T09:34:18;5.32;;;1.30;;
69008;SDS011;56065;52.472;13.380;2023-05-19T09:36:48;5.23;;;1.33;;
69008;SDS011;56065;52.472;13.380;2023-05-19T09:39:14;5.97;;;2.00;;
69008;SDS011;56065;52.472;13.380;2023-05-19T09:41:40;4.22;;;1.35;;
69008;SDS011;56065;52.472;13.380;2023-05-19T09:44:06;4.50;;;1.30;;
69008;SDS011;56065;52.472;13.380;2023-05-19T09:46:31;4.83;;;1.60;;
69008;SDS011;56065;52.472;13.380;2023-05-19T09:48:59;7.47;;;1.08;;
69008;SDS011;56065;52.472;13.380;2023-05-19T09:51:33;4.57;;;1.03;;
69008;SDS011;56065;52.472;13.380;2023-05-19T09:54:02;4.60;;;1.50;;
69008;SDS011;56065;52.472;13.380;2023-05-19T09:56:34;5.63;;;0.98;;
69008;SDS011;56065;52.472;13.380;2023-05-19T09:59:03;3.50;;;1.20;;
69008;SDS011;56065;52.472;13.380;2023-05-19T10:01:32;4.28;;;1.55;;
69008;SDS011;56065;52.472;13.380;2023-05-19T10:03:57;3.77;;;1.10;;
69008;SDS011;56065;52.472;13.380;2023-05-19T10:06:24;7.35;;;1.50;;
69008;SDS011;56065;52.472;13.380;2023-05-19T10:08:50;5.75;;;1.30;;
69008;SDS011;56065;52.472;13.380;2023-05-19T10:11:16;6.15;;;1.17;;
69008;SDS011;56065;52.472;13.380;2023-05-19T10:13:43;4.97;;;1.20;;
69008;SDS011;56065;52.472;13.380;2023-05-19T10:16:10;4.57;;;1.25;;
69008;SDS011;56065;52.472;13.380;2023-05-19T10:18:36;4.13;;;1.20;;
69008;SDS011;56065;52.472;13.380;2023-05-19T10:21:02;3.95;;;1.20;;
69008;SDS011;56065;52.472;13.380;2023-05-19T10:23:28;5.68;;;1.42;;
69008;SDS011;56065;52.472;13.380;2023-05-19T10:25:54;6.83;;;1.47;;
69008;SDS011;56065;52.472;13.380;2023-05-19T10:28:21;5.88;;;1.30;;
69008;SDS011;56065;52.472;13.380;2023-05-19T10:30:52;4.17;;;1.17;;
69008;SDS011;56065;52.472;13.380;2023-05-19T10:33:19;4.70;;;1.40;;
69008;SDS011;56065;52.472;13.380;2023-05-19T10:35:58;4.13;;;1.17;;
69008;SDS011;56065;52.472;13.380;2023-05-19T10:38:33;4.68;;;1.10;;
69008;SDS011;56065;52.472;13.380;2023-05-19T10:41:15;3.75;;;1.10;;
69008;SDS011;56065;52.472;13.380;2023-05-19T10:43:53;4.27;;;1.23;;
69008;SDS011;56065;52.472;13.380;2023-05-19T10:46:28;5.82;;;1.30;;
69008;SDS011;56065;52.472;13.380;2023-05-19T10:48:54;4.00;;;1.13;;
69008;SDS011;56065;52.472;13.380;2023-05-19T10:51:19;4.80;;;1.40;;
69008;SDS011;56065;52.472;13.380;2023-05-19T10:53:45;3.92;;;0.90;;
69008;SDS011;56065;52.472;13.380;2023-05-19T10:56:11;4.37;;;1.20;;
69008;SDS011;56065;52.472;13.380;2023-05-19T10:58:53;4.45;;;1.20;;
69008;SDS011;56065;52.472;13.380;2023-05-19T11:01:19;3.60;;;1.10;;
69008;SDS011;56065;52.472;13.380;2023-05-19T11:03:49;4.22;;;1.20;;
69008;SDS011;56065;52.472;13.380;2023-05-19T11:08:59;4.70;;;1.20;;
69008;SDS011;56065;52.472;13.380;2023-05-19T11:11:45;5.13;;;1.53;;
69008;SDS011;56065;52.472;13.380;2023-05-19T11:14:21;3.60;;;1.15;;
69008;SDS011;56065;52.472;13.380;2023-05-19T11:16:56;5.50;;;1.30;;
69008;SDS011;56065;52.472;13.380;2023-05-19T11:19:29;4.40;;;0.90;;
69008;SDS011;56065;52.472;13.380;2023-05-19T11:21:56;5.18;;;1.08;;
69008;SDS011;56065;52.472;13.380;2023-05-19T11:29:52;5.80;;;1.10;;
69008;SDS011;56065;52.472;13.380;2023-05-19T11:32:38;5.22;;;0.98;;
69008;SDS011;56065;52.472;13.380;2023-05-19T11:35:06;6.13;;;1.30;;
69008;SDS011;56065;52.472;13.380;2023-05-19T11:37:32;7.87;;;1.20;;
69008;SDS011;56065;52.472;13.380;2023-05-19T11:40:04;3.40;;;1.00;;
69008;SDS011;56065;52.472;13.380;2023-05-19T11:42:31;4.03;;;1.10;;
69008;SDS011;56065;52.472;13.380;2023-05-19T11:44:58;6.43;;;2.78;;
69008;SDS011;56065;52.472;13.380;2023-05-19T11:47:23;3.10;;;0.80;;
69008;SDS011;56065;52.472;13.380;2023-05-19T11:49:49;3.93;;;1.10;;
69008;SDS011;56065;52.472;13.380;2023-05-19T11:52:20;4.60;;;1.20;;
69008;SDS011;56065;52.472;13.380;2023-05-19T11:54:47;5.20;;;1.10;;
69008;SDS011;56065;52.472;13.380;2023-05-19T11:57:12;3.83;;;1.13;;
69008;SDS011;56065;52.472;13.380;2023-05-19T11:59:38;5.30;;;1.20;;
69008;SDS011;56065;52.472;13.380;2023-05-19T12:02:18;5.47;;;1.20;;
69008;SDS011;56065;52.472;13.380;2023-05-19T12:04:50;4.55;;;1.33;;
69008;SDS011;56065;52.472;13.380;2023-05-19T12:07:17;5.22;;;1.20;;
69008;SDS011;56065;52.472;13.380;2023-05-19T12:09:44;5.07;;;1.13;;
69008;SDS011;56065;52.472;13.380;2023-05-19T12:12:12;3.47;;;0.90;;
69008;SDS011;56065;52.472;13.380;2023-05-19T12:14:38;4.55;;;1.58;;
69008;SDS011;56065;52.472;13.380;2023-05-19T12:17:14;3.27;;;1.00;;
69008;SDS011;56065;52.472;13.380;2023-05-19T12:19:46;4.47;;;1.60;;
69008;SDS011;56065;52.472;13.380;2023-05-19T12:22:13;4.05;;;1.35;;
69008;SDS011;56065;52.472;13.380;2023-05-19T12:24:40;4.35;;;1.30;;
69008;SDS011;56065;52.472;13.380;2023-05-19T12:29:41;3.97;;;1.10;;
69008;SDS011;56065;52.472;13.380;2023-05-19T12:32:07;4.60;;;1.20;;
69008;SDS011;56065;52.472;13.380;2023-05-19T12:34:36;4.53;;;1.23;;
69008;SDS011;56065;52.472;13.380;2023-05-19T12:37:02;4.55;;;1.20;;
69008;SDS011;56065;52.472;13.380;2023-05-19T12:39:28;4.07;;;1.33;;
69008;SDS011;56065;52.472;13.380;2023-05-19T12:42:05;4.17;;;1.10;;
69008;SDS011;56065;52.472;13.380;2023-05-19T12:44:36;4.38;;;1.25;;
69008;SDS011;56065;52.472;13.380;2023-05-19T12:47:05;3.63;;;1.02;;
69008;SDS011;56065;52.472;13.380;2023-05-19T12:49:31;4.43;;;1.35;;
69008;SDS011;56065;52.472;13.380;2023-05-19T12:51:59;5.00;;;1.60;;
69008;SDS011;56065;52.472;13.380;2023-05-19T12:54:26;6.80;;;1.77;;
69008;SDS011;56065;52.472;13.380;2023-05-19T12:56:52;4.43;;;1.40;;
69008;SDS011;56065;52.472;13.380;2023-05-19T12:59:21;8.73;;;1.50;;
69008;SDS011;56065;52.472;13.380;2023-05-19T13:01:54;4.90;;;1.48;;
69008;SDS011;56065;52.472;13.380;2023-05-19T13:04:20;4.97;;;1.58;;
69008;SDS011;56065;52.472;13.380;2023-05-19T13:06:45;5.47;;;1.40;;
69008;SDS011;56065;52.472;13.380;2023-05-19T13:09:13;5.97;;;1.52;;
69008;SDS011;56065;52.472;13.380;2023-05-19T13:11:39;5.32;;;1.30;;
69008;SDS011;56065;52.472;13.380;2023-05-19T13:14:04;3.80;;;1.20;;
69008;SDS011;56065;52.472;13.380;2023-05-19T13:16:30;4.73;;;1.20;;
69008;SDS011;56065;52.472;13.380;2023-05-19T13:18:55;5.93;;;1.20;;
69008;SDS011;56065;52.472;13.380;2023-05-19T13:21:20;5.97;;;1.40;;
69008;SDS011;56065;52.472;13.380;2023-05-19T13:23:46;4.75;;;1.30;;
69008;SDS011;56065;52.472;13.380;2023-05-19T13:26:11;6.17;;;1.40;;
69008;SDS011;56065;52.472;13.380;2023-05-19T13:28:37;5.43;;;1.70;;
69008;SDS011;56065;52.472;13.380;2023-05-19T13:31:02;8.48;;;1.38;;
69008;SDS011;56065;52.472;13.380;2023-05-19T13:33:28;5.57;;;1.30;;
69008;SDS011;56065;52.472;13.380;2023-05-19T13:35:53;5.50;;;1.30;;
69008;SDS011;56065;52.472;13.380;2023-05-19T13:38:18;5.10;;;1.17;;
69008;SDS011;56065;52.472;13.380;2023-05-19T13:40:44;4.97;;;1.43;;
69008;SDS011;56065;52.472;13.380;2023-05-19T13:43:09;3.60;;;1.10;;
69008;SDS011;56065;52.472;13.380;2023-05-19T13:45:35;6.20;;;1.20;;
69008;SDS011;56065;52.472;13.380;2023-05-19T13:48:00;4.40;;;1.10;;
69008;SDS011;56065;52.472;13.380;2023-05-19T13:50:26;4.93;;;1.35;;
69008;SDS011;56065;52.472;13.380;2023-05-19T13:52:51;4.63;;;1.30;;
69008;SDS011;56065;52.472;13.380;2023-05-19T13:55:17;4.38;;;1.40;;
69008;SDS011;56065;52.472;13.380;2023-05-19T13:57:43;4.30;;;1.60;;
69008;SDS011;56065;52.472;13.380;2023-05-19T14:00:08;4.67;;;1.30;;
69008;SDS011;56065;52.472;13.380;2023-05-19T14:02:34;7.40;;;1.50;;
69008;SDS011;56065;52.472;13.380;2023-05-19T14:05:01;6.07;;;1.67;;
69008;SDS011;56065;52.472;13.380;2023-05-19T14:07:27;4.25;;;1.65;;
69008;SDS011;56065;52.472;13.380;2023-05-19T14:09:53;4.30;;;1.03;;
69008;SDS011;56065;52.472;13.380;2023-05-19T14:12:19;5.25;;;1.55;;
69008;SDS011;56065;52.472;13.380;2023-05-19T14:14:44;3.40;;;1.20;;
69008;SDS011;56065;52.472;13.380;2023-05-19T14:17:12;5.72;;;1.20;;
69008;SDS011;56065;52.472;13.380;2023-05-19T14:19:37;3.43;;;1.20;;
69008;SDS011;56065;52.472;13.380;2023-05-19T14:22:03;7.37;;;1.90;;
69008;SDS011;56065;52.472;13.380;2023-05-19T14:24:29;5.57;;;1.40;;
69008;SDS011;56065;52.472;13.380;2023-05-19T14:26:54;5.85;;;1.52;;
69008;SDS011;56065;52.472;13.380;2023-05-19T14:29:20;4.50;;;1.20;;
69008;SDS011;56065;52.472;13.380;2023-05-19T14:31:45;4.50;;;1.27;;
69008;SDS011;56065;52.472;13.380;2023-05-19T14:34:11;5.50;;;1.50;;
69008;SDS011;56065;52.472;13.380;2023-05-19T14:36:36;6.07;;;2.20;;
69008;SDS011;56065;52.472;13.380;2023-05-19T14:39:01;3.97;;;1.20;;
69008;SDS011;56065;52.472;13.380;2023-05-19T14:41:27;7.78;;;1.52;;
69008;SDS011;56065;52.472;13.380;2023-05-19T14:43:52;6.37;;;1.40;;
69008;SDS011;56065;52.472;13.380;2023-05-19T14:46:18;5.07;;;1.40;;
69008;SDS011;56065;52.472;13.380;2023-05-19T14:48:43;4.77;;;1.30;;
69008;SDS011;56065;52.472;13.380;2023-05-19T14:51:09;4.87;;;1.30;;
69008;SDS011;56065;52.472;13.380;2023-05-19T14:53:34;4.43;;;1.27;;
69008;SDS011;56065;52.472;13.380;2023-05-19T14:55:59;5.03;;;1.40;;
69008;SDS011;56065;52.472;13.380;2023-05-19T14:58:25;4.70;;;1.20;;